sensor_id;sensor_type;location;lat;lon;timestamp;pressure;altitude;pressure_sealevel;temperature;humidity
15489;BME280;7846;48.830;9.116;2023-04-20T00:00:53;97847.41;;;7.32;61.18
15489;BME280;7846;48.830;9.116;2023-04-20T00:03:24;97846.19;;;6.86;61.51
15489;BME280;7846;48.830;9.116;2023-04-20T00:05:55;97839.75;;;6.90;60.87
15489;BME280;7846;48.830;9.116;2023-04-20T00:08:28;97836.75;;;7.04;61.15
15489;BME280;7846;48.830;9.116;2023-04-20T00:10:58;97814.38;;;6.81;60.92
15489;BME280;7846;48.830;9.116;2023-04-20T00:13:30;97835.13;;;7.22;60.74
15489;BME280;7846;48.830;9.116;2023-04-20T00:16:02;97822.16;;;7.01;60.83
15489;BME280;7846;48.830;9.116;2023-04-20T00:18:33;97827.13;;;7.05;60.83
15489;BME280;7846;48.830;9.116;2023-04-20T00:21:07;97830.78;;;6.92;60.79
15489;BME280;7846;48.830;9.116;2023-04-20T00:23:35;97814.72;;;7.07;61.57
15489;BME280;7846;48.830;9.116;2023-04-20T00:26:02;97812.63;;;6.91;60.94
15489;BME280;7846;48.830;9.116;2023-04-20T00:28:37;97809.19;;;7.00;61.47
15489;BME280;7846;48.830;9.116;2023-04-20T00:31:09;97806.88;;;7.07;61.88
15489;BME280;7846;48.830;9.116;2023-04-20T00:33:37;97791.81;;;6.79;61.79
15489;BME280;7846;48.830;9.116;2023-04-20T00:36:03;97780.34;;;6.71;61.65
15489;BME280;7846;48.830;9.116;2023-04-20T00:38:36;97800.59;;;6.78;61.72
15489;BME280;7846;48.830;9.116;2023-04-20T00:41:04;97803.88;;;6.71;62.95
15489;BME280;7846;48.830;9.116;2023-04-20T00:43:31;97779.41;;;6.82;62.55
15489;BME280;7846;48.830;9.116;2023-04-20T00:45:57;97779.63;;;6.59;62.93
15489;BME280;7846;48.830;9.116;2023-04-20T00:48:22;97775.06;;;6.51;62.78
15489;BME280;7846;48.830;9.116;2023-04-20T00:50:49;97773.00;;;6.45;63.42
15489;BME280;7846;48.830;9.116;2023-04-20T00:53:20;97781.22;;;7.00;62.91
15489;BME280;7846;48.830;9.116;2023-04-20T00:55:46;97766.84;;;6.25;63.14
15489;BME280;7846;48.830;9.116;2023-04-20T00:58:12;97779.09;;;6.65;63.17
15489;BME280;7846;48.830;9.116;2023-04-20T01:00:41;97776.06;;;6.60;62.56
15489;BME280;7846;48.830;9.116;2023-04-20T01:03:07;97766.59;;;6.69;62.17
15489;BME280;7846;48.830;9.116;2023-04-20T01:05:33;97778.69;;;6.60;62.05
15489;BME280;7846;48.830;9.116;2023-04-20T01:08:02;97762.34;;;6.77;62.71
15489;BME280;7846;48.830;9.116;2023-04-20T01:10:34;97760.88;;;6.44;62.88
15489;BME280;7846;48.830;9.116;2023-04-20T01:13:00;97761.13;;;6.32;63.17
15489;BME280;7846;48.830;9.116;2023-04-20T01:15:28;97755.31;;;6.28;63.48
15489;BME280;7846;48.830;9.116;2023-04-20T01:17:53;97753.84;;;6.35;63.43
15489;BME280;7846;48.830;9.116;2023-04-20T01:20:19;97740.59;;;6.27;62.88
15489;BME280;7846;48.830;9.116;2023-04-20T01:22:55;97739.13;;;6.44;63.08
15489;BME280;7846;48.830;9.116;2023-04-20T01:25:22;97733.91;;;6.34;63.21
15489;BME280;7846;48.830;9.116;2023-04-20T01:27:49;97723.75;;;6.10;64.03
15489;BME280;7846;48.830;9.116;2023-04-20T01:30:18;97729.63;;;6.02;64.54
15489;BME280;7846;48.830;9.116;2023-04-20T01:32:47;97724.22;;;6.25;64.00
15489;BME280;7846;48.830;9.116;2023-04-20T01:35:14;97721.84;;;6.12;63.74
15489;BME280;7846;48.830;9.116;2023-04-20T01:37:43;97706.19;;;5.91;63.89
15489;BME280;7846;48.830;9.116;2023-04-20T01:40:14;97713.00;;;6.03;63.49
15489;BME280;7846;48.830;9.116;2023-04-20T01:42:42;97716.72;;;6.01;63.96
15489;BME280;7846;48.830;9.116;2023-04-20T01:45:19;97703.00;;;6.18;63.99
15489;BME280;7846;48.830;9.116;2023-04-20T01:47:50;97691.59;;;5.89;64.35
15489;BME280;7846;48.830;9.116;2023-04-20T01:50:24;97672.97;;;5.72;63.65
15489;BME280;7846;48.830;9.116;2023-04-20T01:52:53;97686.19;;;5.80;63.74
15489;BME280;7846;48.830;9.116;2023-04-20T01:55:21;97688.28;;;5.87;64.17
15489;BME280;7846;48.830;9.116;2023-04-20T01:57:48;97689.31;;;5.74;65.14
15489;BME280;7846;48.830;9.116;2023-04-20T02:03:45;97688.03;;;5.90;65.52
15489;BME280;7846;48.830;9.116;2023-04-20T02:06:15;97686.75;;;6.05;65.46
15489;BME280;7846;48.830;9.116;2023-04-20T02:08:47;97681.16;;;6.19;65.58
15489;BME280;7846;48.830;9.116;2023-04-20T02:11:14;97681.22;;;5.98;64.59
15489;BME280;7846;48.830;9.116;2023-04-20T02:13:43;97673.84;;;6.23;64.30
15489;BME280;7846;48.830;9.116;2023-04-20T02:16:13;97678.69;;;6.27;64.70
15489;BME280;7846;48.830;9.116;2023-04-20T02:18:42;97683.84;;;5.77;65.28
15489;BME280;7846;48.830;9.116;2023-04-20T02:21:12;97668.22;;;5.56;66.01
15489;BME280;7846;48.830;9.116;2023-04-20T02:23:41;97676.50;;;5.92;65.76
15489;BME280;7846;48.830;9.116;2023-04-20T02:26:09;97679.59;;;5.76;64.68
15489;BME280;7846;48.830;9.116;2023-04-20T02:28:57;97670.13;;;5.85;65.47
15489;BME280;7846;48.830;9.116;2023-04-20T02:31:26;97647.25;;;5.16;66.34
15489;BME280;7846;48.830;9.116;2023-04-20T02:34:03;97650.66;;;4.96;66.69
15489;BME280;7846;48.830;9.116;2023-04-20T02:36:40;97661.41;;;5.44;65.89
15489;BME280;7846;48.830;9.116;2023-04-20T02:39:16;97665.56;;;5.26;65.98
15489;BME280;7846;48.830;9.116;2023-04-20T02:44:57;97624.16;;;4.91;67.09
15489;BME280;7846;48.830;9.116;2023-04-20T02:47:27;97627.97;;;5.28;67.43
15489;BME280;7846;48.830;9.116;2023-04-20T02:49:59;97646.72;;;5.43;66.85
15489;BME280;7846;48.830;9.116;2023-04-20T02:52:33;97642.47;;;5.42;66.35
15489;BME280;7846;48.830;9.116;2023-04-20T02:55:08;97643.16;;;5.44;66.48
15489;BME280;7846;48.830;9.116;2023-04-20T02:57:38;97616.44;;;5.10;67.40
15489;BME280;7846;48.830;9.116;2023-04-20T03:00:09;97639.19;;;5.19;67.88
15489;BME280;7846;48.830;9.116;2023-04-20T03:02:44;97628.19;;;5.46;66.85
15489;BME280;7846;48.830;9.116;2023-04-20T03:05:29;97627.97;;;5.28;67.00
15489;BME280;7846;48.830;9.116;2023-04-20T03:08:16;97621.34;;;5.24;66.93
15489;BME280;7846;48.830;9.116;2023-04-20T03:14:19;97624.78;;;5.25;66.93
15489;BME280;7846;48.830;9.116;2023-04-20T03:29:18;97634.06;;;5.18;68.09
15489;BME280;7846;48.830;9.116;2023-04-20T03:35:47;97630.38;;;4.99;66.86
15489;BME280;7846;48.830;9.116;2023-04-20T03:38:51;97629.94;;;4.94;68.96
15489;BME280;7846;48.830;9.116;2023-04-20T03:41:30;97631.06;;;4.80;68.18
15489;BME280;7846;48.830;9.116;2023-04-20T03:44:03;97625.50;;;5.27;67.78
15489;BME280;7846;48.830;9.116;2023-04-20T03:46:45;97624.09;;;5.02;67.25
15489;BME280;7846;48.830;9.116;2023-04-20T03:49:24;97620.19;;;5.38;67.03
15489;BME280;7846;48.830;9.116;2023-04-20T03:55:39;97622.75;;;5.28;67.04
15489;BME280;7846;48.830;9.116;2023-04-20T04:02:52;97599.00;;;5.10;67.87
15489;BME280;7846;48.830;9.116;2023-04-20T04:10:03;97607.75;;;4.79;67.63
15489;BME280;7846;48.830;9.116;2023-04-20T04:19:53;97610.22;;;4.48;69.93
15489;BME280;7846;48.830;9.116;2023-04-20T04:22:28;97618.66;;;4.73;69.30
15489;BME280;7846;48.830;9.116;2023-04-20T04:25:09;97604.00;;;4.72;68.90
15489;BME280;7846;48.830;9.116;2023-04-20T04:28:05;97617.06;;;4.81;69.98
15489;BME280;7846;48.830;9.116;2023-04-20T04:31:36;97601.00;;;4.97;68.34
15489;BME280;7846;48.830;9.116;2023-04-20T04:47:32;97614.78;;;4.88;69.20
15489;BME280;7846;48.830;9.116;2023-04-20T05:03:25;97599.44;;;5.37;67.98
15489;BME280;7846;48.830;9.116;2023-04-20T05:13:45;97600.38;;;5.36;67.29
15489;BME280;7846;48.830;9.116;2023-04-20T05:16:26;97612.53;;;5.46;67.61
15489;BME280;7846;48.830;9.116;2023-04-20T05:18:54;97612.13;;;5.51;66.94
15489;BME280;7846;48.830;9.116;2023-04-20T05:22:00;97623.72;;;5.58;66.58
15489;BME280;7846;48.830;9.116;2023-04-20T05:32:14;97633.69;;;6.04;65.93
15489;BME280;7846;48.830;9.116;2023-04-20T05:34:48;97616.38;;;6.33;65.84
15489;BME280;7846;48.830;9.116;2023-04-20T05:37:20;97627.78;;;6.22;64.76
15489;BME280;7846;48.830;9.116;2023-04-20T05:39:49;97622.41;;;6.14;65.17
15489;BME280;7846;48.830;9.116;2023-04-20T05:46:17;97616.69;;;6.68;63.25
15489;BME280;7846;48.830;9.116;2023-04-20T05:48:51;97612.97;;;6.61;63.89
15489;BME280;7846;48.830;9.116;2023-04-20T05:52:22;97611.72;;;6.94;63.78
15489;BME280;7846;48.830;9.116;2023-04-20T05:55:24;97616.69;;;6.78;63.42
15489;BME280;7846;48.830;9.116;2023-04-20T05:58:09;97616.44;;;6.71;63.21
15489;BME280;7846;48.830;9.116;2023-04-20T06:00:55;97611.69;;;7.04;63.22
15489;BME280;7846;48.830;9.116;2023-04-20T06:03:42;97619.69;;;7.12;63.01
15489;BME280;7846;48.830;9.116;2023-04-20T06:06:28;97615.22;;;7.42;61.90
15489;BME280;7846;48.830;9.116;2023-04-20T06:09:14;97608.56;;;7.47;61.52
15489;BME280;7846;48.830;9.116;2023-04-20T06:11:58;97614.00;;;7.64;61.60
15489;BME280;7846;48.830;9.116;2023-04-20T06:14:43;97613.09;;;7.55;61.52
15489;BME280;7846;48.830;9.116;2023-04-20T06:17:28;97612.59;;;7.79;61.11
15489;BME280;7846;48.830;9.116;2023-04-20T06:20:12;97618.00;;;7.68;61.19
15489;BME280;7846;48.830;9.116;2023-04-20T06:22:56;97609.78;;;8.08;60.16
15489;BME280;7846;48.830;9.116;2023-04-20T06:25:40;97605.81;;;8.32;60.71
15489;BME280;7846;48.830;9.116;2023-04-20T06:28:24;97598.41;;;8.45;59.32
15489;BME280;7846;48.830;9.116;2023-04-20T06:31:08;97608.97;;;8.71;59.15
15489;BME280;7846;48.830;9.116;2023-04-20T06:33:52;97600.34;;;9.23;58.54
15489;BME280;7846;48.830;9.116;2023-04-20T06:36:36;97599.78;;;9.37;57.91
15489;BME280;7846;48.830;9.116;2023-04-20T06:39:22;97604.97;;;9.20;57.73
15489;BME280;7846;48.830;9.116;2023-04-20T06:42:06;97609.78;;;8.89;58.42
15489;BME280;7846;48.830;9.116;2023-04-20T06:44:52;97602.88;;;9.32;57.84
15489;BME280;7846;48.830;9.116;2023-04-20T06:47:39;97595.00;;;9.32;57.97
15489;BME280;7846;48.830;9.116;2023-04-20T06:50:23;97591.59;;;9.40;58.02
15489;BME280;7846;48.830;9.116;2023-04-20T06:53:06;97597.97;;;9.98;57.31
15489;BME280;7846;48.830;9.116;2023-04-20T06:55:53;97600.50;;;10.24;56.71
15489;BME280;7846;48.830;9.116;2023-04-20T06:58:37;97592.72;;;10.06;56.22
15489;BME280;7846;48.830;9.116;2023-04-20T07:01:21;97591.94;;;10.13;56.14
15489;BME280;7846;48.830;9.116;2023-04-20T07:04:05;97583.47;;;10.52;54.93
15489;BME280;7846;48.830;9.116;2023-04-20T07:06:49;97596.34;;;10.80;54.95
15489;BME280;7846;48.830;9.116;2023-04-20T07:09:33;97594.13;;;11.49;54.49
15489;BME280;7846;48.830;9.116;2023-04-20T07:12:17;97595.03;;;11.00;53.05
15489;BME280;7846;48.830;9.116;2023-04-20T07:15:03;97588.53;;;11.52;53.93
15489;BME280;7846;48.830;9.116;2023-04-20T07:17:47;97583.72;;;11.55;53.13
15489;BME280;7846;48.830;9.116;2023-04-20T07:20:31;97579.97;;;11.42;52.72
15489;BME280;7846;48.830;9.116;2023-04-20T07:23:16;97572.16;;;10.84;54.52
15489;BME280;7846;48.830;9.116;2023-04-20T07:26:00;97579.06;;;11.10;53.67
15489;BME280;7846;48.830;9.116;2023-04-20T07:28:45;97585.16;;;11.74;52.58
15489;BME280;7846;48.830;9.116;2023-04-20T07:31:30;97575.53;;;11.98;52.43
15489;BME280;7846;48.830;9.116;2023-04-20T07:34:14;97573.81;;;12.13;52.20
15489;BME280;7846;48.830;9.116;2023-04-20T07:36:58;97576.75;;;11.87;52.51
15489;BME280;7846;48.830;9.116;2023-04-20T07:39:42;97570.84;;;11.60;52.42
15489;BME280;7846;48.830;9.116;2023-04-20T07:42:26;97577.94;;;11.60;53.29
15489;BME280;7846;48.830;9.116;2023-04-20T07:45:11;97573.41;;;11.93;52.56
15489;BME280;7846;48.830;9.116;2023-04-20T07:47:55;97579.72;;;11.20;53.36
15489;BME280;7846;48.830;9.116;2023-04-20T07:50:40;97578.63;;;11.46;52.97
15489;BME280;7846;48.830;9.116;2023-04-20T07:53:25;97568.91;;;12.56;51.64
15489;BME280;7846;48.830;9.116;2023-04-20T07:56:09;97568.91;;;12.79;51.19
15489;BME280;7846;48.830;9.116;2023-04-20T07:58:54;97567.66;;;12.90;50.52
15489;BME280;7846;48.830;9.116;2023-04-20T08:01:37;97576.47;;;13.20;49.56
15489;BME280;7846;48.830;9.116;2023-04-20T08:04:21;97578.84;;;12.77;51.03
15489;BME280;7846;48.830;9.116;2023-04-20T08:07:06;97572.66;;;13.22;50.61
15489;BME280;7846;48.830;9.116;2023-04-20T08:09:50;97568.34;;;13.44;49.68
15489;BME280;7846;48.830;9.116;2023-04-20T08:12:34;97569.72;;;13.70;49.55
15489;BME280;7846;48.830;9.116;2023-04-20T08:15:19;97568.09;;;13.54;49.98
15489;BME280;7846;48.830;9.116;2023-04-20T08:18:03;97568.59;;;13.64;50.14
15489;BME280;7846;48.830;9.116;2023-04-20T08:20:47;97569.44;;;13.65;49.80
15489;BME280;7846;48.830;9.116;2023-04-20T08:23:30;97573.78;;;14.38;48.48
15489;BME280;7846;48.830;9.116;2023-04-20T08:26:14;97563.69;;;13.91;47.77
15489;BME280;7846;48.830;9.116;2023-04-20T08:29:00;97565.41;;;13.98;49.29
15489;BME280;7846;48.830;9.116;2023-04-20T08:31:44;97566.94;;;13.93;49.03
15489;BME280;7846;48.830;9.116;2023-04-20T08:34:28;97571.84;;;14.11;48.59
15489;BME280;7846;48.830;9.116;2023-04-20T08:37:13;97558.47;;;13.38;50.13
15489;BME280;7846;48.830;9.116;2023-04-20T08:40:25;97571.66;;;13.61;49.76
15489;BME280;7846;48.830;9.116;2023-04-20T08:43:10;97564.44;;;13.70;49.97
15489;BME280;7846;48.830;9.116;2023-04-20T08:45:57;97564.31;;;13.34;50.68
15489;BME280;7846;48.830;9.116;2023-04-20T08:48:49;97566.16;;;13.48;50.17
15489;BME280;7846;48.830;9.116;2023-04-20T08:51:34;97561.41;;;13.28;50.97
15489;BME280;7846;48.830;9.116;2023-04-20T08:54:18;97565.69;;;12.69;52.17
15489;BME280;7846;48.830;9.116;2023-04-20T08:57:02;97560.41;;;12.69;53.12
15489;BME280;7846;48.830;9.116;2023-04-20T08:59:46;97561.38;;;12.76;52.95
15489;BME280;7846;48.830;9.116;2023-04-20T09:02:30;97561.13;;;12.40;52.83
15489;BME280;7846;48.830;9.116;2023-04-20T09:05:14;97559.28;;;12.86;52.70
15489;BME280;7846;48.830;9.116;2023-04-20T09:07:59;97557.53;;;12.55;53.89
15489;BME280;7846;48.830;9.116;2023-04-20T09:10:44;97566.41;;;12.08;55.12
15489;BME280;7846;48.830;9.116;2023-04-20T09:13:28;97557.75;;;12.46;55.43
15489;BME280;7846;48.830;9.116;2023-04-20T09:16:12;97557.59;;;12.70;54.48
15489;BME280;7846;48.830;9.116;2023-04-20T09:18:56;97553.25;;;12.77;54.40
15489;BME280;7846;48.830;9.116;2023-04-20T09:21:49;97554.19;;;12.84;53.88
15489;BME280;7846;48.830;9.116;2023-04-20T09:24:36;97557.63;;;12.85;54.34
15489;BME280;7846;48.830;9.116;2023-04-20T09:27:20;97555.09;;;12.54;53.53
15489;BME280;7846;48.830;9.116;2023-04-20T09:30:06;97555.69;;;12.79;53.62
15489;BME280;7846;48.830;9.116;2023-04-20T09:33:02;97548.91;;;12.84;53.79
15489;BME280;7846;48.830;9.116;2023-04-20T09:35:46;97547.25;;;12.38;53.33
15489;BME280;7846;48.830;9.116;2023-04-20T09:38:31;97541.00;;;12.62;53.94
15489;BME280;7846;48.830;9.116;2023-04-20T09:41:15;97547.44;;;12.82;53.80
15489;BME280;7846;48.830;9.116;2023-04-20T09:44:03;97542.06;;;12.90;53.97
15489;BME280;7846;48.830;9.116;2023-04-20T09:46:47;97541.28;;;12.67;54.52
15489;BME280;7846;48.830;9.116;2023-04-20T09:49:31;97542.09;;;12.67;55.36
15489;BME280;7846;48.830;9.116;2023-04-20T09:52:16;97542.50;;;13.17;54.32
15489;BME280;7846;48.830;9.116;2023-04-20T09:55:01;97544.53;;;12.92;54.02
15489;BME280;7846;48.830;9.116;2023-04-20T09:57:47;97541.34;;;12.96;54.01
15489;BME280;7846;48.830;9.116;2023-04-20T10:00:32;97530.41;;;12.84;54.21
15489;BME280;7846;48.830;9.116;2023-04-20T10:03:17;97536.97;;;13.26;52.38
15489;BME280;7846;48.830;9.116;2023-04-20T10:06:01;97524.13;;;12.86;52.88
15489;BME280;7846;48.830;9.116;2023-04-20T10:08:45;97536.88;;;12.97;53.26
15489;BME280;7846;48.830;9.116;2023-04-20T10:11:32;97531.81;;;13.10;53.84
15489;BME280;7846;48.830;9.116;2023-04-20T10:14:21;97538.25;;;12.93;53.75
15489;BME280;7846;48.830;9.116;2023-04-20T10:17:07;97532.50;;;13.27;52.63
15489;BME280;7846;48.830;9.116;2023-04-20T10:19:53;97528.72;;;13.06;52.86
15489;BME280;7846;48.830;9.116;2023-04-20T10:22:37;97518.28;;;12.90;53.88
15489;BME280;7846;48.830;9.116;2023-04-20T10:25:24;97522.69;;;13.50;53.39
15489;BME280;7846;48.830;9.116;2023-04-20T10:28:09;97523.38;;;13.44;52.56
15489;BME280;7846;48.830;9.116;2023-04-20T10:30:53;97521.44;;;13.68;51.84
15489;BME280;7846;48.830;9.116;2023-04-20T10:33:50;97523.34;;;13.89;52.29
15489;BME280;7846;48.830;9.116;2023-04-20T10:36:36;97511.09;;;13.51;52.24
15489;BME280;7846;48.830;9.116;2023-04-20T10:39:20;97515.47;;;13.29;52.69
15489;BME280;7846;48.830;9.116;2023-04-20T10:42:05;97505.91;;;13.43;52.53
15489;BME280;7846;48.830;9.116;2023-04-20T10:44:51;97502.78;;;13.40;52.85
15489;BME280;7846;48.830;9.116;2023-04-20T10:47:35;97503.03;;;13.15;53.42
15489;BME280;7846;48.830;9.116;2023-04-20T10:50:21;97493.56;;;13.21;53.22
15489;BME280;7846;48.830;9.116;2023-04-20T10:53:05;97485.28;;;12.71;54.01
15489;BME280;7846;48.830;9.116;2023-04-20T10:55:59;97483.81;;;13.21;54.37
15489;BME280;7846;48.830;9.116;2023-04-20T10:58:43;97469.88;;;13.13;54.68
15489;BME280;7846;48.830;9.116;2023-04-20T11:01:31;97463.84;;;13.19;55.38
15489;BME280;7846;48.830;9.116;2023-04-20T11:04:15;97466.25;;;13.28;54.72
15489;BME280;7846;48.830;9.116;2023-04-20T11:07:06;97467.41;;;13.92;54.36
15489;BME280;7846;48.830;9.116;2023-04-20T11:09:54;97467.66;;;13.97;53.80
15489;BME280;7846;48.830;9.116;2023-04-20T11:12:38;97470.16;;;13.47;55.36
15489;BME280;7846;48.830;9.116;2023-04-20T11:15:33;97466.88;;;13.30;56.67
15489;BME280;7846;48.830;9.116;2023-04-20T11:18:17;97466.28;;;12.76;57.08
15489;BME280;7846;48.830;9.116;2023-04-20T11:21:01;97459.53;;;12.73;56.00
15489;BME280;7846;48.830;9.116;2023-04-20T11:23:45;97460.47;;;12.43;57.46
15489;BME280;7846;48.830;9.116;2023-04-20T11:26:36;97445.84;;;12.55;59.38
15489;BME280;7846;48.830;9.116;2023-04-20T11:29:31;97446.94;;;12.75;59.19
15489;BME280;7846;48.830;9.116;2023-04-20T11:32:17;97457.78;;;12.66;59.43
15489;BME280;7846;48.830;9.116;2023-04-20T11:35:03;97458.69;;;12.12;58.73
15489;BME280;7846;48.830;9.116;2023-04-20T11:37:51;97462.53;;;11.86;59.25
15489;BME280;7846;48.830;9.116;2023-04-20T11:40:37;97465.75;;;12.20;58.68
15489;BME280;7846;48.830;9.116;2023-04-20T11:43:22;97469.91;;;11.91;59.05
15489;BME280;7846;48.830;9.116;2023-04-20T11:46:13;97461.53;;;11.88;59.81
15489;BME280;7846;48.830;9.116;2023-04-20T11:48:57;97469.88;;;11.60;61.41
15489;BME280;7846;48.830;9.116;2023-04-20T11:51:43;97472.03;;;11.56;60.07
15489;BME280;7846;48.830;9.116;2023-04-20T11:54:29;97470.59;;;11.85;61.21
15489;BME280;7846;48.830;9.116;2023-04-20T11:57:16;97473.22;;;11.85;60.96
15489;BME280;7846;48.830;9.116;2023-04-20T12:00:00;97474.50;;;11.58;62.69
15489;BME280;7846;48.830;9.116;2023-04-20T12:02:47;97459.56;;;12.50;59.87
15489;BME280;7846;48.830;9.116;2023-04-20T12:05:31;97452.69;;;11.72;61.81
15489;BME280;7846;48.830;9.116;2023-04-20T12:08:15;97438.72;;;12.55;59.25
15489;BME280;7846;48.830;9.116;2023-04-20T12:11:00;97447.25;;;12.95;59.20
15489;BME280;7846;48.830;9.116;2023-04-20T12:13:44;97442.53;;;12.91;58.79
15489;BME280;7846;48.830;9.116;2023-04-20T12:16:28;97451.38;;;13.13;58.54
15489;BME280;7846;48.830;9.116;2023-04-20T12:19:12;97456.19;;;12.56;59.30
15489;BME280;7846;48.830;9.116;2023-04-20T12:21:56;97459.00;;;12.93;58.46
15489;BME280;7846;48.830;9.116;2023-04-20T12:24:40;97456.38;;;11.55;61.25
15489;BME280;7846;48.830;9.116;2023-04-20T12:27:25;97453.91;;;11.93;61.35
15489;BME280;7846;48.830;9.116;2023-04-20T12:30:09;97450.19;;;11.71;61.85
15489;BME280;7846;48.830;9.116;2023-04-20T12:32:55;97453.25;;;11.20;64.51
15489;BME280;7846;48.830;9.116;2023-04-20T12:35:38;97453.50;;;10.86;65.25
15489;BME280;7846;48.830;9.116;2023-04-20T12:38:22;97447.53;;;11.48;63.49
15489;BME280;7846;48.830;9.116;2023-04-20T12:41:06;97438.84;;;12.24;61.73
15489;BME280;7846;48.830;9.116;2023-04-20T12:43:50;97437.94;;;11.55;62.08
15489;BME280;7846;48.830;9.116;2023-04-20T12:46:34;97439.53;;;10.77;63.71
15489;BME280;7846;48.830;9.116;2023-04-20T12:49:18;97430.31;;;11.60;62.98
15489;BME280;7846;48.830;9.116;2023-04-20T12:52:02;97432.69;;;11.07;63.84
15489;BME280;7846;48.830;9.116;2023-04-20T12:54:46;97420.94;;;12.34;60.77
15489;BME280;7846;48.830;9.116;2023-04-20T12:57:31;97416.97;;;11.93;61.42
15489;BME280;7846;48.830;9.116;2023-04-20T13:00:15;97403.53;;;11.79;61.41
15489;BME280;7846;48.830;9.116;2023-04-20T13:03:00;97405.94;;;11.89;61.37
15489;BME280;7846;48.830;9.116;2023-04-20T13:05:44;97409.88;;;12.54;59.45
15489;BME280;7846;48.830;9.116;2023-04-20T13:08:29;97427.47;;;12.76;59.22
15489;BME280;7846;48.830;9.116;2023-04-20T13:11:13;97434.34;;;13.30;57.78
15489;BME280;7846;48.830;9.116;2023-04-20T13:13:58;97435.50;;;12.83;57.75
15489;BME280;7846;48.830;9.116;2023-04-20T13:16:43;97445.59;;;12.65;59.32
15489;BME280;7846;48.830;9.116;2023-04-20T13:19:28;97443.63;;;12.44;59.39
15489;BME280;7846;48.830;9.116;2023-04-20T13:22:12;97444.03;;;12.70;58.37
15489;BME280;7846;48.830;9.116;2023-04-20T13:24:56;97437.72;;;12.56;58.81
15489;BME280;7846;48.830;9.116;2023-04-20T13:27:41;97437.75;;;12.86;58.19
15489;BME280;7846;48.830;9.116;2023-04-20T13:30:26;97429.13;;;12.92;57.98
15489;BME280;7846;48.830;9.116;2023-04-20T13:33:10;97432.31;;;12.35;60.60
15489;BME280;7846;48.830;9.116;2023-04-20T13:35:53;97429.41;;;12.45;60.18
15489;BME280;7846;48.830;9.116;2023-04-20T13:38:38;97422.09;;;12.84;58.69
15489;BME280;7846;48.830;9.116;2023-04-20T13:41:21;97421.72;;;12.58;60.75
15489;BME280;7846;48.830;9.116;2023-04-20T13:44:08;97415.69;;;12.11;59.54
15489;BME280;7846;48.830;9.116;2023-04-20T13:46:58;97417.34;;;11.81;60.17
15489;BME280;7846;48.830;9.116;2023-04-20T13:49:42;97420.84;;;12.05;59.58
15489;BME280;7846;48.830;9.116;2023-04-20T13:52:26;97423.72;;;12.56;58.43
15489;BME280;7846;48.830;9.116;2023-04-20T13:55:10;97410.78;;;12.46;57.92
15489;BME280;7846;48.830;9.116;2023-04-20T13:57:54;97409.00;;;12.76;57.05
15489;BME280;7846;48.830;9.116;2023-04-20T14:00:38;97399.97;;;12.71;57.14
15489;BME280;7846;48.830;9.116;2023-04-20T14:03:24;97397.78;;;13.04;56.87
15489;BME280;7846;48.830;9.116;2023-04-20T14:06:09;97394.97;;;12.91;57.08
15489;BME280;7846;48.830;9.116;2023-04-20T14:08:53;97405.16;;;13.08;56.40
15489;BME280;7846;48.830;9.116;2023-04-20T14:11:36;97406.88;;;12.87;57.36
15489;BME280;7846;48.830;9.116;2023-04-20T14:14:21;97402.97;;;13.12;55.87
15489;BME280;7846;48.830;9.116;2023-04-20T14:17:05;97403.53;;;12.93;56.87
15489;BME280;7846;48.830;9.116;2023-04-20T14:19:49;97404.69;;;13.20;56.09
15489;BME280;7846;48.830;9.116;2023-04-20T14:22:33;97408.53;;;12.88;57.22
15489;BME280;7846;48.830;9.116;2023-04-20T14:25:19;97401.78;;;12.70;57.89
15489;BME280;7846;48.830;9.116;2023-04-20T14:28:03;97402.44;;;12.72;58.17
15489;BME280;7846;48.830;9.116;2023-04-20T14:30:47;97407.53;;;12.89;58.06
15489;BME280;7846;48.830;9.116;2023-04-20T14:33:31;97402.63;;;12.86;57.98
15489;BME280;7846;48.830;9.116;2023-04-20T14:36:15;97408.00;;;12.25;59.20
15489;BME280;7846;48.830;9.116;2023-04-20T14:38:59;97404.16;;;12.65;58.59
15489;BME280;7846;48.830;9.116;2023-04-20T14:41:43;97401.31;;;12.52;58.40
15489;BME280;7846;48.830;9.116;2023-04-20T14:44:27;97400.31;;;12.68;59.09
15489;BME280;7846;48.830;9.116;2023-04-20T14:47:13;97411.34;;;13.01;58.33
15489;BME280;7846;48.830;9.116;2023-04-20T14:49:56;97411.53;;;12.84;59.43
15489;BME280;7846;48.830;9.116;2023-04-20T14:52:40;97418.72;;;12.61;60.56
15489;BME280;7846;48.830;9.116;2023-04-20T14:55:24;97417.03;;;12.83;60.31
15489;BME280;7846;48.830;9.116;2023-04-20T14:58:08;97422.94;;;12.85;60.67
15489;BME280;7846;48.830;9.116;2023-04-20T15:00:53;97425.66;;;12.92;61.47
15489;BME280;7846;48.830;9.116;2023-04-20T15:03:37;97424.91;;;12.53;62.09
15489;BME280;7846;48.830;9.116;2023-04-20T15:06:21;97431.41;;;12.28;62.67
15489;BME280;7846;48.830;9.116;2023-04-20T15:09:06;97436.75;;;12.34;62.25
15489;BME280;7846;48.830;9.116;2023-04-20T15:11:50;97430.19;;;12.30;62.83
15489;BME280;7846;48.830;9.116;2023-04-20T15:14:35;97430.97;;;12.16;63.54
15489;BME280;7846;48.830;9.116;2023-04-20T15:17:19;97429.66;;;12.20;63.79
15489;BME280;7846;48.830;9.116;2023-04-20T15:20:04;97430.31;;;12.37;63.95
15489;BME280;7846;48.830;9.116;2023-04-20T15:22:49;97419.97;;;12.13;64.05
15489;BME280;7846;48.830;9.116;2023-04-20T15:25:34;97424.75;;;12.32;64.11
15489;BME280;7846;48.830;9.116;2023-04-20T15:28:18;97425.22;;;12.35;64.42
15489;BME280;7846;48.830;9.116;2023-04-20T15:31:02;97423.94;;;12.31;65.47
15489;BME280;7846;48.830;9.116;2023-04-20T15:33:46;97416.84;;;12.32;64.84
15489;BME280;7846;48.830;9.116;2023-04-20T15:36:33;97424.81;;;12.62;64.75
15489;BME280;7846;48.830;9.116;2023-04-20T15:39:17;97418.81;;;12.68;64.20
15489;BME280;7846;48.830;9.116;2023-04-20T15:42:01;97419.16;;;12.50;64.98
15489;BME280;7846;48.830;9.116;2023-04-20T15:44:45;97419.16;;;12.50;65.04
15489;BME280;7846;48.830;9.116;2023-04-20T15:47:29;97423.09;;;12.31;65.78
15489;BME280;7846;48.830;9.116;2023-04-20T15:50:13;97417.22;;;12.06;65.69
15489;BME280;7846;48.830;9.116;2023-04-20T15:52:58;97420.66;;;12.29;65.70
15489;BME280;7846;48.830;9.116;2023-04-20T15:55:42;97418.16;;;12.13;65.72
15489;BME280;7846;48.830;9.116;2023-04-20T15:58:28;97408.19;;;12.38;65.03
15489;BME280;7846;48.830;9.116;2023-04-20T16:01:12;97401.00;;;12.32;65.63
15489;BME280;7846;48.830;9.116;2023-04-20T16:03:56;97407.19;;;12.24;66.02